sensor_id;sensor_type;location;lat;lon;timestamp;temperature;humidity
3778;DHT22;1904;50.076;8.660;2023-09-18T00:01:00;18.80;1.00
3778;DHT22;1904;50.076;8.660;2023-09-18T00:03:30;18.70;1.00
3778;DHT22;1904;50.076;8.660;2023-09-18T00:06:00;18.70;1.00
3778;DHT22;1904;50.076;8.660;2023-09-18T00:08:31;18.70;1.00
3778;DHT22;1904;50.076;8.660;2023-09-18T00:11:00;18.70;1.00
3778;DHT22;1904;50.076;8.660;2023-09-18T00:13:26;18.70;1.00
3778;DHT22;1904;50.076;8.660;2023-09-18T00:16:00;18.70;1.00
3778;DHT22;1904;50.076;8.660;2023-09-18T00:18:30;18.70;1.00
3778;DHT22;1904;50.076;8.660;2023-09-18T00:20:56;18.70;1.00
3778;DHT22;1904;50.076;8.660;2023-09-18T00:23:22;18.60;1.00
3778;DHT22;1904;50.076;8.660;2023-09-18T00:26:00;18.60;1.00
3778;DHT22;1904;50.076;8.660;2023-09-18T00:28:30;18.60;1.00
3778;DHT22;1904;50.076;8.660;2023-09-18T00:31:06;18.60;1.00
3778;DHT22;1904;50.076;8.660;2023-09-18T00:33:36;18.70;1.00
3778;DHT22;1904;50.076;8.660;2023-09-18T00:36:03;18.70;1.00
3778;DHT22;1904;50.076;8.660;2023-09-18T00:38:28;18.70;1.00
3778;DHT22;1904;50.076;8.660;2023-09-18T00:40:54;18.70;1.00
3778;DHT22;1904;50.076;8.660;2023-09-18T00:43:20;18.60;1.00
3778;DHT22;1904;50.076;8.660;2023-09-18T00:45:49;18.60;1.00
3778;DHT22;1904;50.076;8.660;2023-09-18T00:48:15;18.70;1.00
3778;DHT22;1904;50.076;8.660;2023-09-18T00:50:44;18.70;1.00
3778;DHT22;1904;50.076;8.660;2023-09-18T00:53:25;18.70;1.00
3778;DHT22;1904;50.076;8.660;2023-09-18T00:55:56;18.70;1.00
3778;DHT22;1904;50.076;8.660;2023-09-18T00:58:25;18.70;1.00
3778;DHT22;1904;50.076;8.660;2023-09-18T01:01:12;18.70;1.00
3778;DHT22;1904;50.076;8.660;2023-09-18T01:03:41;18.70;1.00
3778;DHT22;1904;50.076;8.660;2023-09-18T01:06:07;18.70;1.00
3778;DHT22;1904;50.076;8.660;2023-09-18T01:08:33;18.70;1.00
3778;DHT22;1904;50.076;8.660;2023-09-18T01:11:06;18.80;1.00
3778;DHT22;1904;50.076;8.660;2023-09-18T01:13:54;18.80;1.00
3778;DHT22;1904;50.076;8.660;2023-09-18T01:16:37;18.90;1.00
3778;DHT22;1904;50.076;8.660;2023-09-18T01:19:05;18.90;1.00
3778;DHT22;1904;50.076;8.660;2023-09-18T01:21:30;18.90;1.00
3778;DHT22;1904;50.076;8.660;2023-09-18T01:23:56;18.90;1.00
3778;DHT22;1904;50.076;8.660;2023-09-18T01:26:22;18.90;1.00
3778;DHT22;1904;50.076;8.660;2023-09-18T01:28:47;18.90;1.00
3778;DHT22;1904;50.076;8.660;2023-09-18T01:31:18;18.90;1.00
3778;DHT22;1904;50.076;8.660;2023-09-18T01:33:49;18.90;1.00
3778;DHT22;1904;50.076;8.660;2023-09-18T01:36:24;18.90;1.00
3778;DHT22;1904;50.076;8.660;2023-09-18T01:38:55;18.90;1.00
3778;DHT22;1904;50.076;8.660;2023-09-18T01:41:36;18.90;1.00
3778;DHT22;1904;50.076;8.660;2023-09-18T01:44:12;18.90;1.00
3778;DHT22;1904;50.076;8.660;2023-09-18T01:46:56;18.90;1.00
3778;DHT22;1904;50.076;8.660;2023-09-18T01:49:38;18.90;1.00
3778;DHT22;1904;50.076;8.660;2023-09-18T01:52:05;18.90;1.00
3778;DHT22;1904;50.076;8.660;2023-09-18T01:54:36;19.00;1.00
3778;DHT22;1904;50.076;8.660;2023-09-18T01:57:06;19.00;1.00
3778;DHT22;1904;50.076;8.660;2023-09-18T01:59:42;19.00;1.00
3778;DHT22;1904;50.076;8.660;2023-09-18T02:02:18;19.10;1.00
3778;DHT22;1904;50.076;8.660;2023-09-18T02:05:06;19.10;1.00
3778;DHT22;1904;50.076;8.660;2023-09-18T02:07:36;19.10;1.00
3778;DHT22;1904;50.076;8.660;2023-09-18T02:10:06;19.10;1.00
3778;DHT22;1904;50.076;8.660;2023-09-18T02:12:42;19.10;1.00
3778;DHT22;1904;50.076;8.660;2023-09-18T02:15:18;19.00;1.00
3778;DHT22;1904;50.076;8.660;2023-09-18T02:17:54;19.00;1.00
3778;DHT22;1904;50.076;8.660;2023-09-18T02:20:24;19.00;1.00
3778;DHT22;1904;50.076;8.660;2023-09-18T02:23:06;19.00;1.00
3778;DHT22;1904;50.076;8.660;2023-09-18T02:25:36;19.10;1.00
3778;DHT22;1904;50.076;8.660;2023-09-18T02:28:07;19.10;1.00
3778;DHT22;1904;50.076;8.660;2023-09-18T02:33:06;19.30;1.00
3778;DHT22;1904;50.076;8.660;2023-09-18T02:35:36;19.40;1.00
3778;DHT22;1904;50.076;8.660;2023-09-18T02:38:06;19.40;1.00
3778;DHT22;1904;50.076;8.660;2023-09-18T02:40:36;19.40;1.00
3778;DHT22;1904;50.076;8.660;2023-09-18T02:43:06;19.50;1.00
3778;DHT22;1904;50.076;8.660;2023-09-18T02:46:00;19.50;1.00
3778;DHT22;1904;50.076;8.660;2023-09-18T02:48:30;19.50;1.00
3778;DHT22;1904;50.076;8.660;2023-09-18T02:51:07;19.50;1.00
3778;DHT22;1904;50.076;8.660;2023-09-18T02:53:36;19.50;1.00
3778;DHT22;1904;50.076;8.660;2023-09-18T02:56:06;19.50;1.00
3778;DHT22;1904;50.076;8.660;2023-09-18T02:58:36;19.50;1.00
3778;DHT22;1904;50.076;8.660;2023-09-18T03:01:36;19.50;1.00
3778;DHT22;1904;50.076;8.660;2023-09-18T03:04:06;19.50;1.00
3778;DHT22;1904;50.076;8.660;2023-09-18T03:06:38;19.50;1.00
3778;DHT22;1904;50.076;8.660;2023-09-18T03:09:30;19.40;1.00
3778;DHT22;1904;50.076;8.660;2023-09-18T03:12:00;19.40;1.00
3778;DHT22;1904;50.076;8.660;2023-09-18T03:14:30;19.40;1.00
3778;DHT22;1904;50.076;8.660;2023-09-18T03:17:06;19.30;1.00
3778;DHT22;1904;50.076;8.660;2023-09-18T03:19:36;19.30;1.00
3778;DHT22;1904;50.076;8.660;2023-09-18T03:22:06;19.20;1.00
3778;DHT22;1904;50.076;8.660;2023-09-18T03:24:36;19.10;1.00
3778;DHT22;1904;50.076;8.660;2023-09-18T03:27:06;19.10;1.00
3778;DHT22;1904;50.076;8.660;2023-09-18T03:29:32;19.00;1.00
3778;DHT22;1904;50.076;8.660;2023-09-18T03:32:00;19.00;1.00
3778;DHT22;1904;50.076;8.660;2023-09-18T03:34:26;19.00;1.00
3778;DHT22;1904;50.076;8.660;2023-09-18T03:43:30;19.00;4.10
3778;DHT22;1904;50.076;8.660;2023-09-18T03:49:17;19.00;5.80
3778;DHT22;1904;50.076;8.660;2023-09-18T03:52:06;19.00;3.40
3778;DHT22;1904;50.076;8.660;2023-09-18T03:54:36;19.00;7.20
3778;DHT22;1904;50.076;8.660;2023-09-18T03:57:18;19.00;7.90
3778;DHT22;1904;50.076;8.660;2023-09-18T03:59:44;19.00;7.80
3778;DHT22;1904;50.076;8.660;2023-09-18T04:02:09;18.90;7.50
3778;DHT22;1904;50.076;8.660;2023-09-18T04:07:57;18.90;7.80
3778;DHT22;1904;50.076;8.660;2023-09-18T04:10:42;18.90;6.80
3778;DHT22;1904;50.076;8.660;2023-09-18T04:33:19;18.70;11.70
3778;DHT22;1904;50.076;8.660;2023-09-18T04:35:47;18.70;10.50
3778;DHT22;1904;50.076;8.660;2023-09-18T04:44:48;18.70;15.00
3778;DHT22;1904;50.076;8.660;2023-09-18T04:47:36;18.70;15.80
3778;DHT22;1904;50.076;8.660;2023-09-18T04:53:24;18.80;18.30
3778;DHT22;1904;50.076;8.660;2023-09-18T05:03:24;18.80;22.30
3778;DHT22;1904;50.076;8.660;2023-09-18T05:06:00;18.80;22.90
3778;DHT22;1904;50.076;8.660;2023-09-18T05:18:21;18.80;29.00
3778;DHT22;1904;50.076;8.660;2023-09-18T05:27:48;18.90;27.50
3778;DHT22;1904;50.076;8.660;2023-09-18T05:30:24;18.90;30.40
3778;DHT22;1904;50.076;8.660;2023-09-18T05:39:30;19.00;28.10
3778;DHT22;1904;50.076;8.660;2023-09-18T05:42:00;19.00;33.30
3778;DHT22;1904;50.076;8.660;2023-09-18T05:47:54;19.00;35.50
3778;DHT22;1904;50.076;8.660;2023-09-18T05:50:51;19.00;38.40
3778;DHT22;1904;50.076;8.660;2023-09-18T05:56:42;19.20;29.60
3778;DHT22;1904;50.076;8.660;2023-09-18T05:59:12;19.30;25.10
3778;DHT22;1904;50.076;8.660;2023-09-18T06:02:12;19.30;23.30
3778;DHT22;1904;50.076;8.660;2023-09-18T06:04:42;19.40;19.90
3778;DHT22;1904;50.076;8.660;2023-09-18T06:07:30;19.50;14.90
3778;DHT22;1904;50.076;8.660;2023-09-18T06:10:12;19.50;16.30
3778;DHT22;1904;50.076;8.660;2023-09-18T06:16:00;19.60;11.40
3778;DHT22;1904;50.076;8.660;2023-09-18T06:19:00;19.60;11.30
3778;DHT22;1904;50.076;8.660;2023-09-18T06:21:26;19.60;10.90
3778;DHT22;1904;50.076;8.660;2023-09-18T06:23:52;19.50;10.00
3778;DHT22;1904;50.076;8.660;2023-09-18T06:26:48;19.60;10.40
3778;DHT22;1904;50.076;8.660;2023-09-18T06:32:36;19.80;4.80
3778;DHT22;1904;50.076;8.660;2023-09-18T06:35:02;19.80;3.90
3778;DHT22;1904;50.076;8.660;2023-09-18T06:37:28;19.80;1.00
3778;DHT22;1904;50.076;8.660;2023-09-18T06:43:18;19.90;1.10
3778;DHT22;1904;50.076;8.660;2023-09-18T06:48:58;20.00;1.00
3778;DHT22;1904;50.076;8.660;2023-09-18T07:07:51;20.10;1.00
3778;DHT22;1904;50.076;8.660;2023-09-18T07:13:42;20.40;1.00
3778;DHT22;1904;50.076;8.660;2023-09-18T07:16:12;20.60;1.00
3778;DHT22;1904;50.076;8.660;2023-09-18T07:18:42;20.70;1.00
3778;DHT22;1904;50.076;8.660;2023-09-18T07:25:06;20.80;1.00
3778;DHT22;1904;50.076;8.660;2023-09-18T07:37:01;20.80;1.00
3778;DHT22;1904;50.076;8.660;2023-09-18T07:46:05;20.90;1.00
3778;DHT22;1904;50.076;8.660;2023-09-18T07:48:42;20.80;1.00
3778;DHT22;1904;50.076;8.660;2023-09-18T07:51:18;21.00;1.00
3778;DHT22;1904;50.076;8.660;2023-09-18T07:54:06;21.00;1.00
3778;DHT22;1904;50.076;8.660;2023-09-18T07:56:36;21.00;1.00
3778;DHT22;1904;50.076;8.660;2023-09-18T07:59:06;21.30;1.00
3778;DHT22;1904;50.076;8.660;2023-09-18T08:02:00;21.40;1.00
3778;DHT22;1904;50.076;8.660;2023-09-18T08:04:26;21.50;1.00
3778;DHT22;1904;50.076;8.660;2023-09-18T08:06:54;21.70;1.00
3778;DHT22;1904;50.076;8.660;2023-09-18T08:09:21;21.80;1.00
3778;DHT22;1904;50.076;8.660;2023-09-18T08:12:18;21.90;1.00
3778;DHT22;1904;50.076;8.660;2023-09-18T08:18:24;22.20;1.00
3778;DHT22;1904;50.076;8.660;2023-09-18T08:21:07;22.20;1.00
3778;DHT22;1904;50.076;8.660;2023-09-18T08:24:06;22.30;1.00
3778;DHT22;1904;50.076;8.660;2023-09-18T08:26:32;22.30;1.00
3778;DHT22;1904;50.076;8.660;2023-09-18T08:29:30;22.60;1.00
3778;DHT22;1904;50.076;8.660;2023-09-18T08:32:30;22.70;1.00
3778;DHT22;1904;50.076;8.660;2023-09-18T08:35:07;22.80;1.00
3778;DHT22;1904;50.076;8.660;2023-09-18T08:37:36;23.00;1.00
3778;DHT22;1904;50.076;8.660;2023-09-18T08:40:19;23.10;1.00
3778;DHT22;1904;50.076;8.660;2023-09-18T08:42:51;23.20;1.00
3778;DHT22;1904;50.076;8.660;2023-09-18T08:48:12;23.10;1.00
3778;DHT22;1904;50.076;8.660;2023-09-18T08:50:39;23.20;1.00
3778;DHT22;1904;50.076;8.660;2023-09-18T08:53:12;23.30;1.00
3778;DHT22;1904;50.076;8.660;2023-09-18T08:55:48;23.40;1.00
3778;DHT22;1904;50.076;8.660;2023-09-18T08:58:42;23.50;1.00
3778;DHT22;1904;50.076;8.660;2023-09-18T09:01:12;23.40;1.00
3778;DHT22;1904;50.076;8.660;2023-09-18T09:03:39;23.20;1.00
3778;DHT22;1904;50.076;8.660;2023-09-18T09:06:09;23.30;1.00
3778;DHT22;1904;50.076;8.660;2023-09-18T09:09:06;23.30;1.00
3778;DHT22;1904;50.076;8.660;2023-09-18T09:11:34;23.30;1.00
3778;DHT22;1904;50.076;8.660;2023-09-18T09:14:13;23.10;1.00
3778;DHT22;1904;50.076;8.660;2023-09-18T09:16:55;23.20;1.00
3778;DHT22;1904;50.076;8.660;2023-09-18T09:19:33;23.10;1.00
3778;DHT22;1904;50.076;8.660;2023-09-18T09:22:03;23.10;1.00
3778;DHT22;1904;50.076;8.660;2023-09-18T09:28:12;23.40;1.00
3778;DHT22;1904;50.076;8.660;2023-09-18T09:30:38;23.50;1.00
3778;DHT22;1904;50.076;8.660;2023-09-18T09:33:24;23.60;1.00
3778;DHT22;1904;50.076;8.660;2023-09-18T09:35:54;23.70;1.00
3778;DHT22;1904;50.076;8.660;2023-09-18T09:38:36;23.60;1.00
3778;DHT22;1904;50.076;8.660;2023-09-18T09:41:06;23.40;1.00
3778;DHT22;1904;50.076;8.660;2023-09-18T09:43:43;23.40;1.00
3778;DHT22;1904;50.076;8.660;2023-09-18T09:46:24;23.40;1.00
3778;DHT22;1904;50.076;8.660;2023-09-18T09:49:12;23.30;1.00
3778;DHT22;1904;50.076;8.660;2023-09-18T09:51:54;23.10;1.00
3778;DHT22;1904;50.076;8.660;2023-09-18T09:54:33;22.90;1.00
3778;DHT22;1904;50.076;8.660;2023-09-18T09:57:12;22.90;1.00
3778;DHT22;1904;50.076;8.660;2023-09-18T09:59:42;22.80;1.00
3778;DHT22;1904;50.076;8.660;2023-09-18T10:02:19;22.90;1.00
3778;DHT22;1904;50.076;8.660;2023-09-18T10:05:18;23.10;1.00
3778;DHT22;1904;50.076;8.660;2023-09-18T10:07:44;23.20;1.00
3778;DHT22;1904;50.076;8.660;2023-09-18T10:10:11;23.30;1.00
3778;DHT22;1904;50.076;8.660;2023-09-18T10:12:37;23.40;1.00
3778;DHT22;1904;50.076;8.660;2023-09-18T10:15:04;23.30;1.00
3778;DHT22;1904;50.076;8.660;2023-09-18T10:17:37;23.30;1.00
3778;DHT22;1904;50.076;8.660;2023-09-18T10:20:13;23.50;1.00
3778;DHT22;1904;50.076;8.660;2023-09-18T10:26:01;23.60;1.00
3778;DHT22;1904;50.076;8.660;2023-09-18T10:28:29;23.70;1.00
3778;DHT22;1904;50.076;8.660;2023-09-18T10:31:00;23.60;1.00
3778;DHT22;1904;50.076;8.660;2023-09-18T10:33:31;23.50;1.00
3778;DHT22;1904;50.076;8.660;2023-09-18T10:35:57;23.40;1.00
3778;DHT22;1904;50.076;8.660;2023-09-18T10:38:25;23.60;1.00
3778;DHT22;1904;50.076;8.660;2023-09-18T10:40:52;23.60;1.00
3778;DHT22;1904;50.076;8.660;2023-09-18T10:43:19;23.80;1.00
3778;DHT22;1904;50.076;8.660;2023-09-18T10:45:49;23.80;1.00
3778;DHT22;1904;50.076;8.660;2023-09-18T10:48:19;23.80;1.00
3778;DHT22;1904;50.076;8.660;2023-09-18T10:50:46;23.80;1.00
3778;DHT22;1904;50.076;8.660;2023-09-18T10:53:12;23.90;1.00
3778;DHT22;1904;50.076;8.660;2023-09-18T10:55:54;24.20;1.00
3778;DHT22;1904;50.076;8.660;2023-09-18T10:58:36;24.50;1.00
3778;DHT22;1904;50.076;8.660;2023-09-18T11:01:24;24.50;1.00
3778;DHT22;1904;50.076;8.660;2023-09-18T11:03:54;24.60;1.00
3778;DHT22;1904;50.076;8.660;2023-09-18T11:09:56;24.70;1.00
3778;DHT22;1904;50.076;8.660;2023-09-18T11:12:44;24.60;1.00
3778;DHT22;1904;50.076;8.660;2023-09-18T11:15:33;24.60;1.00
3778;DHT22;1904;50.076;8.660;2023-09-18T11:17:59;24.40;1.00
3778;DHT22;1904;50.076;8.660;2023-09-18T11:20:42;24.30;1.00
3778;DHT22;1904;50.076;8.660;2023-09-18T11:26:09;24.30;1.00
3778;DHT22;1904;50.076;8.660;2023-09-18T11:28:54;24.50;1.00
3778;DHT22;1904;50.076;8.660;2023-09-18T11:31:51;24.80;1.00
3778;DHT22;1904;50.076;8.660;2023-09-18T11:34:37;24.60;1.00
3778;DHT22;1904;50.076;8.660;2023-09-18T11:37:20;24.80;1.00
3778;DHT22;1904;50.076;8.660;2023-09-18T11:39:54;24.90;1.00
3778;DHT22;1904;50.076;8.660;2023-09-18T11:42:22;25.10;1.00
3778;DHT22;1904;50.076;8.660;2023-09-18T11:45:00;25.00;1.00
3778;DHT22;1904;50.076;8.660;2023-09-18T11:47:31;25.00;1.00
3778;DHT22;1904;50.076;8.660;2023-09-18T11:50:10;25.10;1.00
3778;DHT22;1904;50.076;8.660;2023-09-18T11:52:42;25.20;1.00
3778;DHT22;1904;50.076;8.660;2023-09-18T11:55:30;24.90;1.00
3778;DHT22;1904;50.076;8.660;2023-09-18T11:57:58;24.90;1.00
3778;DHT22;1904;50.076;8.660;2023-09-18T12:00:36;24.90;1.00
3778;DHT22;1904;50.076;8.660;2023-09-18T12:03:24;24.80;1.00
3778;DHT22;1904;50.076;8.660;2023-09-18T12:06:02;24.80;1.00
3778;DHT22;1904;50.076;8.660;2023-09-18T12:08:52;24.60;1.00
3778;DHT22;1904;50.076;8.660;2023-09-18T12:11:30;24.50;1.00
3778;DHT22;1904;50.076;8.660;2023-09-18T12:14:01;24.70;1.00
3778;DHT22;1904;50.076;8.660;2023-09-18T12:16:28;24.80;1.00
3778;DHT22;1904;50.076;8.660;2023-09-18T12:19:18;24.90;1.00
3778;DHT22;1904;50.076;8.660;2023-09-18T12:21:54;25.10;1.00
3778;DHT22;1904;50.076;8.660;2023-09-18T12:24:26;25.10;1.00
3778;DHT22;1904;50.076;8.660;2023-09-18T12:27:18;25.10;1.00
3778;DHT22;1904;50.076;8.660;2023-09-18T12:30:00;25.10;1.00
3778;DHT22;1904;50.076;8.660;2023-09-18T12:32:30;25.20;1.00
3778;DHT22;1904;50.076;8.660;2023-09-18T12:35:01;25.30;1.00
3778;DHT22;1904;50.076;8.660;2023-09-18T12:37:27;25.10;1.00
3778;DHT22;1904;50.076;8.660;2023-09-18T12:39:53;25.40;1.00
3778;DHT22;1904;50.076;8.660;2023-09-18T12:42:19;25.60;1.00
3778;DHT22;1904;50.076;8.660;2023-09-18T12:44:48;25.80;1.00
3778;DHT22;1904;50.076;8.660;2023-09-18T12:47:18;25.60;1.00
3778;DHT22;1904;50.076;8.660;2023-09-18T12:49:44;25.80;1.00
3778;DHT22;1904;50.076;8.660;2023-09-18T12:52:10;26.10;1.00
3778;DHT22;1904;50.076;8.660;2023-09-18T12:54:40;26.20;1.00
3778;DHT22;1904;50.076;8.660;2023-09-18T12:57:07;26.40;1.00
3778;DHT22;1904;50.076;8.660;2023-09-18T12:59:36;26.50;1.00
3778;DHT22;1904;50.076;8.660;2023-09-18T13:02:04;26.50;1.00
3778;DHT22;1904;50.076;8.660;2023-09-18T13:04:34;26.50;1.00
3778;DHT22;1904;50.076;8.660;2023-09-18T13:10:25;27.40;1.00
3778;DHT22;1904;50.076;8.660;2023-09-18T13:12:52;27.20;1.00
3778;DHT22;1904;50.076;8.660;2023-09-18T13:15:31;27.10;1.00
3778;DHT22;1904;50.076;8.660;2023-09-18T13:18:00;27.00;1.00
3778;DHT22;1904;50.076;8.660;2023-09-18T13:27:18;26.80;1.00
3778;DHT22;1904;50.076;8.660;2023-09-18T13:36:27;26.80;1.00
3778;DHT22;1904;50.076;8.660;2023-09-18T13:38:53;26.80;1.00
3778;DHT22;1904;50.076;8.660;2023-09-18T13:41:25;26.70;1.00
3778;DHT22;1904;50.076;8.660;2023-09-18T13:43:51;26.70;1.00
3778;DHT22;1904;50.076;8.660;2023-09-18T13:53:12;26.20;1.00
3778;DHT22;1904;50.076;8.660;2023-09-18T13:59:24;26.30;1.00
3778;DHT22;1904;50.076;8.660;2023-09-18T14:05:11;26.40;1.00
3778;DHT22;1904;50.076;8.660;2023-09-18T14:07:38;26.50;1.00
3778;DHT22;1904;50.076;8.660;2023-09-18T14:16:44;26.10;1.00
3778;DHT22;1904;50.076;8.660;2023-09-18T14:19:12;26.20;1.00
3778;DHT22;1904;50.076;8.660;2023-09-18T14:21:43;26.30;1.00
3778;DHT22;1904;50.076;8.660;2023-09-18T14:27:24;26.30;1.00
3778;DHT22;1904;50.076;8.660;2023-09-18T14:30:18;26.30;1.00
3778;DHT22;1904;50.076;8.660;2023-09-18T14:32:48;26.20;1.00
3778;DHT22;1904;50.076;8.660;2023-09-18T14:35:15;26.20;1.00
3778;DHT22;1904;50.076;8.660;2023-09-18T14:37:42;26.00;1.00
3778;DHT22;1904;50.076;8.660;2023-09-18T14:54:21;26.20;1.00
3778;DHT22;1904;50.076;8.660;2023-09-18T15:00:54;26.20;1.00
3778;DHT22;1904;50.076;8.660;2023-09-18T15:06:41;26.30;1.00
3778;DHT22;1904;50.076;8.660;2023-09-18T15:09:18;26.80;1.00
3778;DHT22;1904;50.076;8.660;2023-09-18T15:14:56;27.70;1.00
3778;DHT22;1904;50.076;8.660;2023-09-18T15:17:30;27.90;1.00
3778;DHT22;1904;50.076;8.660;2023-09-18T15:19:56;28.40;1.00
3778;DHT22;1904;50.076;8.660;2023-09-18T15:22:24;28.40;1.00
3778;DHT22;1904;50.076;8.660;2023-09-18T15:28:30;29.10;1.00
3778;DHT22;1904;50.076;8.660;2023-09-18T15:34:00;29.30;1.00
3778;DHT22;1904;50.076;8.660;2023-09-18T15:43:30;27.40;1.00
3778;DHT22;1904;50.076;8.660;2023-09-18T15:46:00;26.90;1.00
3778;DHT22;1904;50.076;8.660;2023-09-18T15:51:24;26.30;1.00
3778;DHT22;1904;50.076;8.660;2023-09-18T15:54:12;26.10;1.00
3778;DHT22;1904;50.076;8.660;2023-09-18T16:03:36;25.70;1.00
3778;DHT22;1904;50.076;8.660;2023-09-18T16:09:27;25.40;1.00
3778;DHT22;1904;50.076;8.660;2023-09-18T16:18:42;25.40;1.00
3778;DHT22;1904;50.076;8.660;2023-09-18T16:21:08;25.30;1.00
3778;DHT22;1904;50.076;8.660;2023-09-18T16:23:36;25.10;1.00
3778;DHT22;1904;50.076;8.660;2023-09-18T16:26:24;24.90;1.00
3778;DHT22;1904;50.076;8.660;2023-09-18T16:32:12;24.70;1.00
3778;DHT22;1904;50.076;8.660;2023-09-18T16:34:42;24.60;1.00
3778;DHT22;1904;50.076;8.660;2023-09-18T16:43:52;24.00;1.00
3778;DHT22;1904;50.076;8.660;2023-09-18T16:46:30;23.80;1.00
3778;DHT22;1904;50.076;8.660;2023-09-18T16:48:56;23.70;1.00
3778;DHT22;1904;50.076;8.660;2023-09-18T16:51:31;23.60;1.00
3778;DHT22;1904;50.076;8.660;2023-09-18T16:54:06;23.60;1.00
3778;DHT22;1904;50.076;8.660;2023-09-18T16:56:54;23.50;1.00
3778;DHT22;1904;50.076;8.660;2023-09-18T16:59:36;23.40;1.00
3778;DHT22;1904;50.076;8.660;2023-09-18T17:02:30;23.40;1.00
3778;DHT22;1904;50.076;8.660;2023-09-18T17:05:18;23.20;1.00
3778;DHT22;1904;50.076;8.660;2023-09-18T17:07:48;23.20;1.00
3778;DHT22;1904;50.076;8.660;2023-09-18T17:10:42;23.00;1.00
3778;DHT22;1904;50.076;8.660;2023-09-18T17:13:42;22.90;1.00
3778;DHT22;1904;50.076;8.660;2023-09-18T17:19:30;22.70;1.00
3778;DHT22;1904;50.076;8.660;2023-09-18T17:25:17;22.60;1.00
3778;DHT22;1904;50.076;8.660;2023-09-18T17:27:49;22.50;1.00
3778;DHT22;1904;50.076;8.660;2023-09-18T17:30:24;22.50;1.00
3778;DHT22;1904;50.076;8.660;2023-09-18T17:32:52;22.50;1.00
3778;DHT22;1904;50.076;8.660;2023-09-18T17:35:18;22.40;1.00
3778;DHT22;1904;50.076;8.660;2023-09-18T17:41:05;22.40;1.00
3778;DHT22;1904;50.076;8.660;2023-09-18T17:46:48;22.30;1.00
3778;DHT22;1904;50.076;8.660;2023-09-18T17:49:18;22.30;1.00
3778;DHT22;1904;50.076;8.660;2023-09-18T17:51:46;22.30;1.00
3778;DHT22;1904;50.076;8.660;2023-09-18T17:54:12;22.30;1.00
3778;DHT22;1904;50.076;8.660;2023-09-18T18:00:13;22.40;1.00
3778;DHT22;1904;50.076;8.660;2023-09-18T18:03:12;22.30;1.00
3778;DHT22;1904;50.076;8.660;2023-09-18T18:05:54;22.40;1.00
3778;DHT22;1904;50.076;8.660;2023-09-18T18:12:00;22.30;1.00
3778;DHT22;1904;50.076;8.660;2023-09-18T18:14:26;22.40;1.00
3778;DHT22;1904;50.076;8.660;2023-09-18T18:20:15;22.40;1.00
3778;DHT22;1904;50.076;8.660;2023-09-18T18:22:48;22.40;1.00
3778;DHT22;1904;50.076;8.660;2023-09-18T18:28:37;22.30;1.00
3778;DHT22;1904;50.076;8.660;2023-09-18T18:31:26;22.30;1.00
3778;DHT22;1904;50.076;8.660;2023-09-18T18:34:00;22.20;1.00
3778;DHT22;1904;50.076;8.660;2023-09-18T18:36:36;22.20;1.00
3778;DHT22;1904;50.076;8.660;2023-09-18T18:39:24;22.20;1.00
3778;DHT22;1904;50.076;8.660;2023-09-18T18:45:30;22.10;1.00
3778;DHT22;1904;50.076;8.660;2023-09-18T18:48:18;22.00;1.00
3778;DHT22;1904;50.076;8.660;2023-09-18T18:51:11;21.90;1.00
3778;DHT22;1904;50.076;8.660;2023-09-18T19:03:42;21.70;1.00
3778;DHT22;1904;50.076;8.660;2023-09-18T19:09:30;21.60;1.00
3778;DHT22;1904;50.076;8.660;2023-09-18T19:15:18;21.50;1.00
3778;DHT22;1904;50.076;8.660;2023-09-18T19:17:54;21.50;1.00
3778;DHT22;1904;50.076;8.660;2023-09-18T19:20:24;21.50;1.00
3778;DHT22;1904;50.076;8.660;2023-09-18T19:23:06;21.30;1.00
3778;DHT22;1904;50.076;8.660;2023-09-18T19:26:03;21.30;1.00
3778;DHT22;1904;50.076;8.660;2023-09-18T19:28:37;21.30;1.00
3778;DHT22;1904;50.076;8.660;2023-09-18T19:31:20;21.20;1.00
3778;DHT22;1904;50.076;8.660;2023-09-18T19:34:00;21.20;1.00
3778;DHT22;1904;50.076;8.660;2023-09-18T19:36:43;21.10;1.00
3778;DHT22;1904;50.076;8.660;2023-09-18T19:39:24;21.00;1.00
3778;DHT22;1904;50.076;8.660;2023-09-18T19:42:18;21.00;1.00
3778;DHT22;1904;50.076;8.660;2023-09-18T19:44:49;20.80;1.00
3778;DHT22;1904;50.076;8.660;2023-09-18T19:47:19;20.80;1.00
3778;DHT22;1904;50.076;8.660;2023-09-18T19:50:12;20.70;1.00
3778;DHT22;1904;50.076;8.660;2023-09-18T19:52:43;20.60;1.00
3778;DHT22;1904;50.076;8.660;2023-09-18T19:55:13;20.50;1.00
3778;DHT22;1904;50.076;8.660;2023-09-18T19:57:58;20.40;1.00
3778;DHT22;1904;50.076;8.660;2023-09-18T20:00:24;20.30;1.00
3778;DHT22;1904;50.076;8.660;2023-09-18T20:03:00;20.20;1.00
3778;DHT22;1904;50.076;8.660;2023-09-18T20:05:36;20.10;1.00
3778;DHT22;1904;50.076;8.660;2023-09-18T20:08:30;20.00;1.00
3778;DHT22;1904;50.076;8.660;2023-09-18T20:10:56;19.90;1.00
3778;DHT22;1904;50.076;8.660;2023-09-18T20:13:30;19.80;1.00
3778;DHT22;1904;50.076;8.660;2023-09-18T20:16:18;19.70;1.00
3778;DHT22;1904;50.076;8.660;2023-09-18T20:18:48;19.60;1.00
3778;DHT22;1904;50.076;8.660;2023-09-18T20:21:18;19.50;1.00
3778;DHT22;1904;50.076;8.660;2023-09-18T20:24:07;19.40;1.00
3778;DHT22;1904;50.076;8.660;2023-09-18T20:26:42;19.30;1.00
3778;DHT22;1904;50.076;8.660;2023-09-18T20:29:15;19.20;1.00
3778;DHT22;1904;50.076;8.660;2023-09-18T20:31:43;19.20;1.00
3778;DHT22;1904;50.076;8.660;2023-09-18T20:34:12;19.20;1.00
3778;DHT22;1904;50.076;8.660;2023-09-18T20:36:48;19.00;1.00
3778;DHT22;1904;50.076;8.660;2023-09-18T20:39:24;18.90;1.00
3778;DHT22;1904;50.076;8.660;2023-09-18T20:41:54;18.80;1.00
3778;DHT22;1904;50.076;8.660;2023-09-18T20:47:18;18.90;1.00
3778;DHT22;1904;50.076;8.660;2023-09-18T20:50:08;18.80;1.00
3778;DHT22;1904;50.076;8.660;2023-09-18T20:52:37;18.60;1.00
3778;DHT22;1904;50.076;8.660;2023-09-18T20:55:07;18.60;1.00
3778;DHT22;1904;50.076;8.660;2023-09-18T20:57:36;18.50;1.00
3778;DHT22;1904;50.076;8.660;2023-09-18T21:00:07;18.50;1.00
3778;DHT22;1904;50.076;8.660;2023-09-18T21:02:36;18.40;1.00
3778;DHT22;1904;50.076;8.660;2023-09-18T21:05:30;18.40;1.00
3778;DHT22;1904;50.076;8.660;2023-09-18T21:07:56;18.40;1.00
3778;DHT22;1904;50.076;8.660;2023-09-18T21:10:24;18.30;1.00
3778;DHT22;1904;50.076;8.660;2023-09-18T21:12:50;18.30;1.00
3778;DHT22;1904;50.076;8.660;2023-09-18T21:15:24;18.30;1.00
3778;DHT22;1904;50.076;8.660;2023-09-18T21:17:54;18.20;1.00
3778;DHT22;1904;50.076;8.660;2023-09-18T21:20:20;18.10;1.00
3778;DHT22;1904;50.076;8.660;2023-09-18T21:22:46;18.10;1.00
3778;DHT22;1904;50.076;8.660;2023-09-18T21:25:12;18.00;1.00
3778;DHT22;1904;50.076;8.660;2023-09-18T21:27:42;18.00;1.00
3778;DHT22;1904;50.076;8.660;2023-09-18T21:30:13;18.00;1.00
3778;DHT22;1904;50.076;8.660;2023-09-18T21:32:38;17.90;1.00
3778;DHT22;1904;50.076;8.660;2023-09-18T21:35:04;17.80;1.00
3778;DHT22;1904;50.076;8.660;2023-09-18T21:37:30;17.90;1.00
3778;DHT22;1904;50.076;8.660;2023-09-18T21:40:07;17.90;1.00
3778;DHT22;1904;50.076;8.660;2023-09-18T21:42:54;18.00;1.00
3778;DHT22;1904;50.076;8.660;2023-09-18T21:45:25;18.00;1.00
3778;DHT22;1904;50.076;8.660;2023-09-18T21:47:51;18.00;1.00
3778;DHT22;1904;50.076;8.660;2023-09-18T21:50:19;18.00;1.00
3778;DHT22;1904;50.076;8.660;2023-09-18T21:52:46;18.00;1.00
3778;DHT22;1904;50.076;8.660;2023-09-18T21:55:12;18.00;1.00
3778;DHT22;1904;50.076;8.660;2023-09-18T21:57:37;18.00;1.00
3778;DHT22;1904;50.076;8.660;2023-09-18T22:00:05;18.00;1.00
3778;DHT22;1904;50.076;8.660;2023-09-18T22:02:55;18.00;1.00
3778;DHT22;1904;50.076;8.660;2023-09-18T22:05:21;17.90;1.00
3778;DHT22;1904;50.076;8.660;2023-09-18T22:07:48;18.00;1.00
3778;DHT22;1904;50.076;8.660;2023-09-18T22:10:14;18.00;1.00
3778;DHT22;1904;50.076;8.660;2023-09-18T22:12:41;17.90;1.00
3778;DHT22;1904;50.076;8.660;2023-09-18T22:15:12;17.90;1.00